Byrnedale, PA (15827)

7:26 AM EDT on July 29, 2016 (GMT -0400)
APRSWXNET | | Change Station

Elev 1578 ft 41.42 °N, 78.58 °W | Updated 38 minutes ago

Fog
Fog
67 °F
Feels Like 67 °F
N
0
Wind Variable Wind from WSW
Gusts 0.0 mph

Today
High -- | Low -- °F
--% Chance of Precip.
Yesterday
High -- | Low -- °F
Precip. -- in
Pressure 29.93 in
Visibility 0.2 miles
Clouds
Dew Point 66 °F
Humidity 96%
Rainfall in
Snow Depth Not available.
6:06 AM 8:33 PM
Waning Crescent, 23% visible
METAR KFIG 291054Z AUTO 00000KT M1/4SM FG VV002 18/17 A2995 RMK AO2 SLP135 T01830172
Pressure 29.93 in
Visibility 0.2 miles
Clouds
Dew Point 66 °F
Humidity 96%
Rainfall in
Snow Depth Not available.
6:06 AM 8:33 PM
Waning Crescent, 23% visible
METAR KFIG 291054Z AUTO 00000KT M1/4SM FG VV002 18/17 A2995 RMK AO2 SLP135 T01830172

10-Day Weather Forecast

Almanac

Astronomy

Jul. 29, 2016 Rise Set
Actual Time
Civil Twilight
Nautical Twilight
Astronomical Twilight
Moon
Length of Visible Light
Length of Day
Tomorrow will be .
, % of the Moon is Illuminated

Today's Extremes

State Highs State Lows

Community

WunderPhotos

Upload Photos

1,928,312 photos uploaded!

WunderBlog® & News

Nearby

Air Quality

  Air Quality AQ Index Pollutant
Not available.

Snow Depth

Station Depth Elevation

Earthquake Activity

City Distance Mag. Time & Date
Minimum magnitude displayed is 2.5.

Coastal Water Temperatures

Place Temperature

Stations

Nearby Weather Stations

Station Location Temp. Windchill Dew Point Humidity Wind Precip. Elev Updated Type
                   

Watches & Warnings

There are currently no watches in effect.